Time;durP1;ratioP1;P1;durP2;ratioP2;P2;SDS_P1;SDS_P2;PMS_P1;PMS_P2;Temp;Humidity;BMP_temperature;BMP_pressure;BME280_temperature;BME280_humidity;BME280_pressure;Samples;Min_cycle;Max_cycle;Signal;HPM_P1;HPM_P2
2022/03/24 00:20:33;;;;;;;10.00;5.78;;;;;;;;;;4495363;29;20081;-62
2022/03/24 00:22:59;;;;;;;9.32;5.90;;;;;;;;;;4122472;34;20130;-60
2022/03/24 00:25:26;;;;;;;10.10;4.85;;;;;;;;;;4108627;34;20217;-63
2022/03/24 00:27:52;;;;;;;8.90;5.47;;;;;;;;;;4124093;34;20226;-63
2022/03/24 00:30:18;;;;;;;7.07;4.95;;;;;;;;;;4124196;34;20603;-60
2022/03/24 00:32:44;;;;;;;7.87;4.82;;;;;;;;;;4136908;34;20119;-63
2022/03/24 00:35:10;;;;;;;7.90;5.37;;;;;;;;;;4136815;34;20116;-62
2022/03/24 00:37:36;;;;;;;9.95;5.45;;;;;;;;;;4136703;34;20115;-62
2022/03/24 00:40:06;;;;;;;8.63;5.18;;;;;;;;;;4136927;34;20704;-62
2022/03/24 00:42:36;;;;;;;10.57;5.68;;;;;;;;;;4136657;34;20114;-61
2022/03/24 00:45:04;;;;;;;9.70;5.68;;;;;;;;;;4136650;34;20119;-63
2022/03/24 00:47:30;;;;;;;11.00;5.85;;;;;;;;;;4136560;34;20116;-65
2022/03/24 00:49:56;;;;;;;10.88;5.75;;;;;;;;;;4136678;34;20126;-65
2022/03/24 00:52:22;;;;;;;9.93;5.65;;;;;;;;;;4101815;34;20607;-65
2022/03/24 00:54:48;;;;;;;9.77;6.65;;;;;;;;;;4136756;34;20118;-66
2022/03/24 00:57:13;;;;;;;8.60;5.68;;;;;;;;;;4136236;34;20111;-65
2022/03/24 00:59:40;;;;;;;8.13;5.80;;;;;;;;;;4136517;34;20219;-65
2022/03/24 01:02:09;;;;;;;11.35;6.45;;;;;;;;;;4136866;34;20104;-65
2022/03/24 01:04:36;;;;;;;7.55;5.62;;;;;;;;;;4136369;34;20125;-65
2022/03/24 01:07:03;;;;;;;9.43;5.95;;;;;;;;;;4136672;34;20203;-65
2022/03/24 01:09:30;;;;;;;10.18;5.82;;;;;;;;;;4113102;34;20135;-65
2022/03/24 01:11:56;;;;;;;9.27;6.60;;;;;;;;;;4124025;34;20107;-65
2022/03/24 01:14:23;;;;;;;9.48;6.03;;;;;;;;;;4124210;34;20175;-65
2022/03/24 01:16:51;;;;;;;9.98;6.25;;;;;;;;;;4136388;34;20100;-65
2022/03/24 01:19:17;;;;;;;9.27;5.53;;;;;;;;;;4136332;34;20131;-65
2022/03/24 01:21:43;;;;;;;9.10;6.05;;;;;;;;;;4136580;34;20126;-64
2022/03/24 01:24:09;;;;;;;9.10;6.43;;;;;;;;;;4136098;34;20117;-64
2022/03/24 01:26:36;;;;;;;9.73;5.75;;;;;;;;;;4124079;34;20198;-64
2022/03/24 01:29:03;;;;;;;9.48;6.25;;;;;;;;;;4136294;34;20123;-64
2022/03/24 01:31:29;;;;;;;10.15;5.95;;;;;;;;;;4136623;34;20201;-64
2022/03/24 01:33:55;;;;;;;7.97;5.70;;;;;;;;;;4136311;34;20134;-64
2022/03/24 01:36:21;;;;;;;10.45;6.12;;;;;;;;;;4136180;34;20528;-65
2022/03/24 01:38:47;;;;;;;12.55;5.45;;;;;;;;;;4136385;34;20456;-65
2022/03/24 01:41:13;;;;;;;8.70;5.80;;;;;;;;;;4136063;34;20138;-65
2022/03/24 01:43:40;;;;;;;10.85;5.78;;;;;;;;;;4136037;34;20114;-65
2022/03/24 01:46:07;;;;;;;9.63;5.85;;;;;;;;;;4136205;34;20741;-66
2022/03/24 01:48:33;;;;;;;9.82;5.60;;;;;;;;;;4123415;34;20476;-65
2022/03/24 01:50:59;;;;;;;10.02;6.75;;;;;;;;;;4123693;34;20403;-65
2022/03/24 01:53:25;;;;;;;8.38;5.35;;;;;;;;;;4135931;34;20110;-66
2022/03/24 01:55:54;;;;;;;12.43;6.00;;;;;;;;;;4136010;34;20111;-65
2022/03/24 01:58:22;;;;;;;10.13;5.87;;;;;;;;;;4115920;34;20144;-66
2022/03/24 02:00:48;;;;;;;12.37;5.72;;;;;;;;;;4122573;34;20624;-65
2022/03/24 02:03:14;;;;;;;11.20;5.82;;;;;;;;;;4110282;34;20128;-65
2022/03/24 02:05:42;;;;;;;8.68;5.37;;;;;;;;;;4110118;34;20544;-66
2022/03/24 02:08:08;;;;;;;11.90;6.30;;;;;;;;;;4098950;34;20455;-66
2022/03/24 02:10:35;;;;;;;9.52;5.80;;;;;;;;;;4112043;34;20512;-68
2022/03/24 02:13:01;;;;;;;9.48;5.97;;;;;;;;;;4124736;34;20123;-67
2022/03/24 02:15:29;;;;;;;8.63;5.93;;;;;;;;;;4124523;34;20111;-67
2022/03/24 02:17:55;;;;;;;10.48;6.25;;;;;;;;;;4124475;34;20131;-66
2022/03/24 02:20:22;;;;;;;9.68;5.95;;;;;;;;;;4111893;34;20103;-65
2022/03/24 02:22:49;;;;;;;8.93;6.03;;;;;;;;;;4111999;34;20233;-65
2022/03/24 02:25:15;;;;;;;7.93;5.95;;;;;;;;;;4124082;34;20156;-65
2022/03/24 02:27:41;;;;;;;12.57;6.20;;;;;;;;;;4137758;34;20133;-65
2022/03/24 02:30:09;;;;;;;8.93;5.65;;;;;;;;;;4125184;34;20502;-66
2022/03/24 02:32:35;;;;;;;8.45;6.00;;;;;;;;;;4125274;34;20115;-67
2022/03/24 02:35:01;;;;;;;10.52;5.97;;;;;;;;;;4125249;34;20119;-68
2022/03/24 02:37:28;;;;;;;8.75;6.00;;;;;;;;;;4125450;34;20112;-67
2022/03/24 02:39:56;;;;;;;9.73;5.80;;;;;;;;;;4137683;34;20590;-66
2022/03/24 02:42:25;;;;;;;9.23;6.20;;;;;;;;;;4125257;34;20147;-67
2022/03/24 02:44:53;;;;;;;11.60;5.78;;;;;;;;;;4125176;34;20108;-66
2022/03/24 02:47:20;;;;;;;8.82;5.70;;;;;;;;;;4125198;34;20200;-67
2022/03/24 02:49:48;;;;;;;11.12;6.28;;;;;;;;;;4137590;34;20124;-66
2022/03/24 02:52:15;;;;;;;11.95;6.10;;;;;;;;;;4137509;34;20460;-65
2022/03/24 02:54:41;;;;;;;10.57;6.40;;;;;;;;;;4125060;34;20100;-66
2022/03/24 02:57:08;;;;;;;11.10;7.50;;;;;;;;;;4125173;34;20176;-66
2022/03/24 02:59:34;;;;;;;11.38;6.62;;;;;;;;;;4125041;34;20115;-63
2022/03/24 03:02:15;;;;;;;10.65;6.50;;;;;;;;;;4125037;34;20540;-65
2022/03/24 03:04:42;;;;;;;9.90;6.80;;;;;;;;;;4137369;34;20525;-66
2022/03/24 03:07:08;;;;;;;10.63;6.80;;;;;;;;;;4137446;34;20103;-67
2022/03/24 03:09:37;;;;;;;8.52;6.28;;;;;;;;;;4137370;34;20170;-67
2022/03/24 03:12:04;;;;;;;9.52;5.75;;;;;;;;;;4125042;34;20600;-66
2022/03/24 03:14:30;;;;;;;10.85;6.70;;;;;;;;;;4137326;34;20493;-66
2022/03/24 03:16:59;;;;;;;7.78;5.35;;;;;;;;;;4137337;34;20126;-66
2022/03/24 03:19:26;;;;;;;7.80;5.60;;;;;;;;;;4124846;34;20119;-66
2022/03/24 03:21:52;;;;;;;8.77;5.78;;;;;;;;;;4124377;34;20104;-68
2022/03/24 03:24:21;;;;;;;10.40;5.45;;;;;;;;;;4136995;34;20120;-67
2022/03/24 03:26:47;;;;;;;8.55;6.32;;;;;;;;;;4137316;34;20112;-68
2022/03/24 03:29:13;;;;;;;8.15;5.75;;;;;;;;;;4137324;34;20208;-67
2022/03/24 03:31:39;;;;;;;8.52;5.60;;;;;;;;;;4136868;34;20107;-65
2022/03/24 03:34:08;;;;;;;11.32;5.78;;;;;;;;;;4124711;34;20111;-63
2022/03/24 03:36:34;;;;;;;9.50;5.43;;;;;;;;;;4113639;34;20186;-65
2022/03/24 03:39:00;;;;;;;8.65;5.57;;;;;;;;;;4135837;34;20126;-66
2022/03/24 03:41:28;;;;;;;9.77;5.32;;;;;;;;;;4124911;34;20112;-64
2022/03/24 03:43:55;;;;;;;11.32;5.72;;;;;;;;;;4124569;34;20551;-66
2022/03/24 03:46:22;;;;;;;8.32;5.57;;;;;;;;;;4124739;34;20115;-65
2022/03/24 03:48:49;;;;;;;9.13;5.80;;;;;;;;;;4124789;34;20107;-66
2022/03/24 03:51:15;;;;;;;9.48;5.87;;;;;;;;;;4124600;34;20142;-69
2022/03/24 03:53:42;;;;;;;8.88;5.18;;;;;;;;;;4124805;34;20122;-64
2022/03/24 03:56:08;;;;;;;9.02;5.12;;;;;;;;;;4137056;34;20107;-69
2022/03/24 03:58:35;;;;;;;9.68;5.20;;;;;;;;;;4124475;34;20131;-65
2022/03/24 04:01:03;;;;;;;6.80;5.15;;;;;;;;;;4124420;34;20108;-65
2022/03/24 04:03:30;;;;;;;8.73;5.40;;;;;;;;;;4124490;34;20433;-66
2022/03/24 04:05:58;;;;;;;8.82;5.57;;;;;;;;;;4136936;34;20122;-66
2022/03/24 04:08:24;;;;;;;8.60;5.62;;;;;;;;;;4124434;34;20114;-64
2022/03/24 04:10:50;;;;;;;9.48;5.93;;;;;;;;;;4136884;34;20120;-64
2022/03/24 04:13:18;;;;;;;9.07;5.87;;;;;;;;;;4137217;34;20126;-65
2022/03/24 04:15:45;;;;;;;9.27;5.10;;;;;;;;;;4136904;34;20153;-65
2022/03/24 04:18:12;;;;;;;8.48;5.18;;;;;;;;;;4124255;34;20455;-66
2022/03/24 04:20:39;;;;;;;10.07;5.62;;;;;;;;;;4136763;34;20092;-67
2022/03/24 04:23:05;;;;;;;10.70;5.72;;;;;;;;;;4136709;34;20111;-67
2022/03/24 04:25:32;;;;;;;8.18;5.72;;;;;;;;;;4136867;34;20130;-66
2022/03/24 04:27:59;;;;;;;8.50;5.30;;;;;;;;;;4124181;34;20118;-66
2022/03/24 04:30:28;;;;;;;6.72;4.55;;;;;;;;;;4136632;34;20150;-66
2022/03/24 04:32:55;;;;;;;9.15;5.35;;;;;;;;;;4123592;34;20135;-67
2022/03/24 04:35:21;;;;;;;9.07;5.50;;;;;;;;;;4136641;34;20100;-65
2022/03/24 04:37:48;;;;;;;6.20;4.87;;;;;;;;;;4136722;34;20145;-66
2022/03/24 04:40:17;;;;;;;8.23;5.30;;;;;;;;;;4124021;34;20188;-67
2022/03/24 04:42:45;;;;;;;9.63;5.62;;;;;;;;;;4136892;34;20203;-66
2022/03/24 04:45:11;;;;;;;6.32;5.28;;;;;;;;;;4136757;34;20112;-66
2022/03/24 04:47:37;;;;;;;9.02;6.00;;;;;;;;;;4136555;34;20125;-66
2022/03/24 04:50:04;;;;;;;9.20;6.00;;;;;;;;;;4136582;34;20123;-66
2022/03/24 04:52:31;;;;;;;7.87;6.00;;;;;;;;;;4136574;34;20103;-66
2022/03/24 04:55:01;;;;;;;10.30;6.72;;;;;;;;;;4136591;34;20536;-66
2022/03/24 04:57:27;;;;;;;9.80;6.53;;;;;;;;;;4136431;34;20543;-66
2022/03/24 04:59:54;;;;;;;11.73;6.82;;;;;;;;;;4124062;34;20196;-67
2022/03/24 05:02:20;;;;;;;10.23;6.00;;;;;;;;;;4136811;34;20123;-68
2022/03/24 05:04:46;;;;;;;11.27;6.70;;;;;;;;;;4136368;34;20212;-64
2022/03/24 05:07:13;;;;;;;9.30;5.80;;;;;;;;;;4136653;34;20201;-65
2022/03/24 05:09:39;;;;;;;7.85;5.72;;;;;;;;;;4112961;34;20115;-64
2022/03/24 05:12:06;;;;;;;11.98;6.03;;;;;;;;;;4136492;34;20505;-64
2022/03/24 05:14:32;;;;;;;10.93;5.72;;;;;;;;;;4136321;34;20212;-68
2022/03/24 05:16:59;;;;;;;9.75;5.10;;;;;;;;;;4136589;34;20114;-68
2022/03/24 05:19:25;;;;;;;7.32;5.55;;;;;;;;;;4123744;34;20135;-67
2022/03/24 05:21:51;;;;;;;8.20;5.30;;;;;;;;;;4124079;34;20340;-67
2022/03/24 05:24:17;;;;;;;7.75;5.62;;;;;;;;;;4136091;34;20119;-66
2022/03/24 05:26:43;;;;;;;6.25;4.75;;;;;;;;;;4124059;34;20111;-69
2022/03/24 05:29:09;;;;;;;7.18;5.12;;;;;;;;;;4136277;34;20104;-66
2022/03/24 05:31:36;;;;;;;8.70;5.30;;;;;;;;;;4136190;34;20133;-66
2022/03/24 05:34:01;;;;;;;6.87;5.07;;;;;;;;;;4123939;34;20205;-66
2022/03/24 05:36:28;;;;;;;11.15;4.97;;;;;;;;;;4136265;34;20134;-65
2022/03/24 05:38:53;;;;;;;6.47;4.60;;;;;;;;;;4123552;34;20453;-66
2022/03/24 05:41:20;;;;;;;7.25;4.62;;;;;;;;;;4136107;34;20146;-66
2022/03/24 05:44:02;;;;;;;9.57;4.65;;;;;;;;;;4135685;34;20127;-65
2022/03/24 05:46:58;;;;;;;10.35;6.12;;;;;;;;;;4136498;34;20188;-65
2022/03/24 05:49:24;;;;;;;8.00;5.20;;;;;;;;;;4121950;34;20111;-64
2022/03/24 05:51:50;;;;;;;6.57;4.43;;;;;;;;;;4136081;34;20107;-65
2022/03/24 05:54:19;;;;;;;6.68;5.10;;;;;;;;;;4136004;34;20218;-66
2022/03/24 05:56:46;;;;;;;7.65;4.70;;;;;;;;;;4135980;34;20224;-65
2022/03/24 05:59:12;;;;;;;6.78;4.87;;;;;;;;;;4135972;34;20106;-66
2022/03/24 06:01:42;;;;;;;11.15;5.85;;;;;;;;;;4136321;34;20142;-65
2022/03/24 06:04:08;;;;;;;9.02;4.95;;;;;;;;;;4135808;34;20649;-65
2022/03/24 06:06:37;;;;;;;13.07;5.78;;;;;;;;;;4136247;34;20114;-66
2022/03/24 06:09:05;;;;;;;7.12;4.18;;;;;;;;;;4123728;34;20180;-65
2022/03/24 06:11:34;;;;;;;10.70;6.72;;;;;;;;;;4123535;34;20135;-67
2022/03/24 06:14:01;;;;;;;7.28;4.35;;;;;;;;;;4123779;34;20519;-65
2022/03/24 06:16:27;;;;;;;8.02;4.65;;;;;;;;;;4136206;34;20134;-66
2022/03/24 06:18:53;;;;;;;8.75;5.53;;;;;;;;;;4123278;34;20133;-65
2022/03/24 06:21:19;;;;;;;5.40;3.40;;;;;;;;;;4135657;34;20616;-65
2022/03/24 06:23:45;;;;;;;7.93;4.18;;;;;;;;;;4135655;34;20119;-66
2022/03/24 06:26:11;;;;;;;9.20;5.45;;;;;;;;;;4123322;34;20491;-66
2022/03/24 06:28:37;;;;;;;7.45;3.95;;;;;;;;;;4136127;34;20623;-67
2022/03/24 06:31:03;;;;;;;6.40;4.00;;;;;;;;;;4135661;34;20108;-66
2022/03/24 06:33:29;;;;;;;10.02;4.40;;;;;;;;;;4135637;34;20655;-65
2022/03/24 06:35:56;;;;;;;8.98;4.30;;;;;;;;;;4123112;34;20221;-68
2022/03/24 06:38:24;;;;;;;6.75;3.55;;;;;;;;;;4123449;34;20122;-68
2022/03/24 06:40:50;;;;;;;6.97;3.70;;;;;;;;;;4135652;34;20203;-64
2022/03/24 06:43:16;;;;;;;8.00;3.30;;;;;;;;;;4123064;34;20115;-65
2022/03/24 06:45:42;;;;;;;7.03;3.55;;;;;;;;;;4135414;34;20244;-65
2022/03/24 06:48:09;;;;;;;8.35;3.65;;;;;;;;;;4135396;34;20623;-65
2022/03/24 06:50:36;;;;;;;6.68;4.18;;;;;;;;;;4122816;34;20128;-65
2022/03/24 06:53:03;;;;;;;5.53;4.07;;;;;;;;;;4123109;34;20104;-65
2022/03/24 06:55:29;;;;;;;6.75;4.10;;;;;;;;;;4123181;34;20126;-65
2022/03/24 06:57:55;;;;;;;7.97;3.80;;;;;;;;;;4125019;34;20133;-66
2022/03/24 07:00:21;;;;;;;7.82;4.30;;;;;;;;;;4137700;34;20122;-64
2022/03/24 07:02:48;;;;;;;10.13;4.22;;;;;;;;;;4125228;34;20134;-65
2022/03/24 07:05:15;;;;;;;7.25;4.12;;;;;;;;;;4137304;34;20163;-65
2022/03/24 07:07:41;;;;;;;7.82;4.15;;;;;;;;;;4124909;34;20123;-64
2022/03/24 07:10:08;;;;;;;8.10;4.20;;;;;;;;;;4124791;34;20595;-66
2022/03/24 07:12:35;;;;;;;5.40;4.10;;;;;;;;;;4125041;34;20100;-66
2022/03/24 07:15:07;;;;;;;8.27;5.10;;;;;;;;;;4135984;34;20131;-65
2022/03/24 07:17:35;;;;;;;8.55;4.57;;;;;;;;;;4137432;34;20192;-66
2022/03/24 07:20:05;;;;;;;6.50;4.28;;;;;;;;;;4137467;34;20127;-67
2022/03/24 07:22:32;;;;;;;6.37;4.47;;;;;;;;;;4137298;34;20123;-63
2022/03/24 07:24:59;;;;;;;5.87;3.83;;;;;;;;;;4124543;34;20626;-64
2022/03/24 07:27:25;;;;;;;8.48;4.68;;;;;;;;;;4124776;34;20623;-64
2022/03/24 07:29:51;;;;;;;8.32;4.05;;;;;;;;;;4137122;34;20545;-63
2022/03/24 07:32:17;;;;;;;6.57;4.20;;;;;;;;;;4137223;34;20127;-63
2022/03/24 07:34:42;;;;;;;9.00;4.82;;;;;;;;;;4137129;34;20178;-67
2022/03/24 07:37:08;;;;;;;6.75;4.22;;;;;;;;;;4137247;34;20155;-67
2022/03/24 07:39:34;;;;;;;5.85;4.50;;;;;;;;;;4135730;34;20183;-64
2022/03/24 07:42:01;;;;;;;6.62;3.00;;;;;;;;;;4137403;34;20134;-67
2022/03/24 07:44:26;;;;;;;7.25;4.18;;;;;;;;;;4136937;34;20115;-64
2022/03/24 07:46:52;;;;;;;7.03;4.60;;;;;;;;;;4137182;34;20119;-64
2022/03/24 07:49:19;;;;;;;6.85;4.25;;;;;;;;;;4137169;34;20204;-65
2022/03/24 07:51:45;;;;;;;8.48;4.53;;;;;;;;;;4137336;34;20119;-63
2022/03/24 07:54:11;;;;;;;5.53;4.12;;;;;;;;;;4135944;34;20099;-63
2022/03/24 07:56:38;;;;;;;6.47;5.03;;;;;;;;;;4135029;34;20135;-63
2022/03/24 07:59:05;;;;;;;7.45;4.80;;;;;;;;;;4135243;34;20144;-63
2022/03/24 08:01:33;;;;;;;7.60;5.07;;;;;;;;;;4135332;34;20096;-63
2022/03/24 08:04:00;;;;;;;5.80;3.05;;;;;;;;;;4135243;34;20469;-63
2022/03/24 08:06:28;;;;;;;7.65;4.50;;;;;;;;;;4135189;34;20205;-63
2022/03/24 08:08:54;;;;;;;10.13;3.97;;;;;;;;;;4135801;34;20111;-64
2022/03/24 08:11:22;;;;;;;3.55;1.62;;;;;;;;;;4137020;34;20223;-65
2022/03/24 08:13:53;;;;;;;6.25;3.85;;;;;;;;;;4136992;34;20120;-64
2022/03/24 08:16:26;;;;;;;5.10;3.28;;;;;;;;;;4136964;34;20107;-65
2022/03/24 08:18:53;;;;;;;2.72;1.45;;;;;;;;;;4137191;34;20092;-65
2022/03/24 08:21:20;;;;;;;6.57;3.97;;;;;;;;;;4136924;34;20206;-65
2022/03/24 08:23:46;;;;;;;2.25;2.05;;;;;;;;;;4137007;34;20100;-65
2022/03/24 08:26:12;;;;;;;1.40;1.30;;;;;;;;;;4136899;34;20134;-65
2022/03/24 08:28:38;;;;;;;8.02;4.68;;;;;;;;;;4136857;34;20088;-65
2022/03/24 08:31:04;;;;;;;2.83;1.95;;;;;;;;;;4136658;34;20135;-65
2022/03/24 08:33:30;;;;;;;3.60;2.50;;;;;;;;;;4135412;34;20122;-65
2022/03/24 08:35:56;;;;;;;1.98;1.83;;;;;;;;;;4124290;34;20239;-66
2022/03/24 08:38:22;;;;;;;7.43;4.35;;;;;;;;;;4136605;34;20112;-64
2022/03/24 08:40:49;;;;;;;12.37;5.53;;;;;;;;;;4136826;34;20230;-63
2022/03/24 08:43:15;;;;;;;1.98;1.77;;;;;;;;;;4136665;34;20195;-63
2022/03/24 08:45:41;;;;;;;3.22;1.90;;;;;;;;;;4124134;34;20564;-63
2022/03/24 08:48:07;;;;;;;1.60;1.17;;;;;;;;;;4136611;34;20113;-63
2022/03/24 08:50:36;;;;;;;3.42;2.15;;;;;;;;;;4124090;34;20138;-63
2022/03/24 08:53:04;;;;;;;10.23;4.32;;;;;;;;;;4136666;34;20099;-63
2022/03/24 08:55:30;;;;;;;1.80;1.35;;;;;;;;;;4136696;34;20107;-63
2022/03/24 08:57:56;;;;;;;10.57;3.37;;;;;;;;;;4136589;34;20107;-63
2022/03/24 09:00:23;;;;;;;15.55;5.95;;;;;;;;;;4136623;34;20520;-63
2022/03/24 09:02:51;;;;;;;7.60;3.65;;;;;;;;;;4124149;34;20192;-63
2022/03/24 09:05:18;;;;;;;8.68;4.72;;;;;;;;;;4136262;34;20133;-64
2022/03/24 09:07:44;;;;;;;12.00;6.72;;;;;;;;;;4136519;34;20614;-63
2022/03/24 09:10:12;;;;;;;3.03;1.70;;;;;;;;;;4136364;34;20123;-63
2022/03/24 09:12:44;;;;;;;7.25;2.22;;;;;;;;;;4136438;34;20473;-63
2022/03/24 09:15:11;;;;;;;9.55;3.83;;;;;;;;;;4136395;34;20098;-63
2022/03/24 09:17:38;;;;;;;5.07;2.70;;;;;;;;;;4134875;34;20122;-63
2022/03/24 09:20:09;;;;;;;3.17;1.98;;;;;;;;;;4135563;34;20102;-63
2022/03/24 09:22:43;;;;;;;2.85;1.98;;;;;;;;;;4136418;34;20116;-63
2022/03/24 09:25:12;;;;;;;2.37;2.15;;;;;;;;;;4136164;34;20139;-63
2022/03/24 09:27:39;;;;;;;5.45;2.95;;;;;;;;;;4136613;34;20196;-63
2022/03/24 09:30:07;;;;;;;4.80;3.42;;;;;;;;;;4136224;34;20114;-62
2022/03/24 09:32:34;;;;;;;1.87;1.48;;;;;;;;;;4136299;34;20269;-63
2022/03/24 09:35:01;;;;;;;2.65;2.28;;;;;;;;;;4136076;34;20135;-61
2022/03/24 09:37:28;;;;;;;2.67;2.30;;;;;;;;;;4112939;34;20123;-64
2022/03/24 09:39:54;;;;;;;1.95;1.67;;;;;;;;;;4131538;34;20142;-62
2022/03/24 09:42:21;;;;;;;2.33;1.67;;;;;;;;;;4136434;34;20111;-63
2022/03/24 09:44:48;;;;;;;1.70;1.60;;;;;;;;;;4136007;34;20463;-64
2022/03/24 09:47:14;;;;;;;5.43;3.50;;;;;;;;;;4136121;34;20096;-64
2022/03/24 09:49:41;;;;;;;5.15;2.75;;;;;;;;;;4123772;34;20107;-64
2022/03/24 09:52:10;;;;;;;4.37;3.03;;;;;;;;;;4136070;34;20115;-64
2022/03/24 09:54:36;;;;;;;11.40;3.15;;;;;;;;;;4135964;34;20121;-64
2022/03/24 09:57:11;;;;;;;5.37;3.28;;;;;;;;;;4136093;34;20110;-64
2022/03/24 09:59:37;;;;;;;5.30;3.65;;;;;;;;;;4136011;34;20557;-63
2022/03/24 10:02:04;;;;;;;7.40;2.95;;;;;;;;;;4135999;34;20594;-64
2022/03/24 10:05:01;;;;;;;4.68;2.90;;;;;;;;;;4123207;34;20130;-65
2022/03/24 10:07:31;;;;;;;5.03;3.08;;;;;;;;;;4130724;34;20448;-63
2022/03/24 10:09:58;;;;;;;5.30;3.37;;;;;;;;;;4133793;34;20112;-63
2022/03/24 10:12:26;;;;;;;7.95;3.17;;;;;;;;;;4131633;34;20116;-64
2022/03/24 10:15:09;;;;;;;5.85;3.15;;;;;;;;;;4132022;34;20123;-64
2022/03/24 10:17:36;;;;;;;6.32;3.50;;;;;;;;;;4131662;34;20126;-64
2022/03/24 10:20:08;;;;;;;7.80;2.85;;;;;;;;;;4131404;34;20539;-63
2022/03/24 10:22:35;;;;;;;8.48;3.37;;;;;;;;;;4131522;34;20639;-63
2022/03/24 10:25:03;;;;;;;4.80;2.87;;;;;;;;;;4131462;34;20163;-64
2022/03/24 10:27:29;;;;;;;4.82;2.50;;;;;;;;;;4107865;34;20122;-64
2022/03/24 10:29:57;;;;;;;5.43;3.25;;;;;;;;;;4132107;34;20692;-63
2022/03/24 10:32:28;;;;;;;6.03;2.70;;;;;;;;;;4133846;34;20297;-65
2022/03/24 10:35:16;;;;;;;6.03;2.80;;;;;;;;;;4121228;34;20123;-62
2022/03/24 10:37:48;;;;;;;1.00;1.00;;;;;;;;;;4127644;34;20135;-61
2022/03/24 10:40:14;;;;;;;4.07;2.40;;;;;;;;;;4126660;34;20140;-61
2022/03/24 10:42:41;;;;;;;4.78;2.78;;;;;;;;;;4120349;34;20453;-62
2022/03/24 10:45:20;;;;;;;3.75;2.45;;;;;;;;;;4124943;34;20119;-62
2022/03/24 10:47:56;;;;;;;3.97;2.42;;;;;;;;;;4137409;34;20182;-63
2022/03/24 10:50:25;;;;;;;4.07;2.30;;;;;;;;;;4136618;34;20112;-61
2022/03/24 10:52:53;;;;;;;6.18;3.22;;;;;;;;;;4137551;34;20536;-61
2022/03/24 10:55:31;;;;;;;1.00;1.00;;;;;;;;;;4137455;34;20120;-62
2022/03/24 10:57:58;;;;;;;3.45;2.30;;;;;;;;;;4125275;34;20130;-63
2022/03/24 11:00:24;;;;;;;1.45;1.23;;;;;;;;;;4125025;34;20205;-63
2022/03/24 11:02:50;;;;;;;1.73;1.35;;;;;;;;;;4122608;34;20484;-65
2022/03/24 11:05:17;;;;;;;4.62;2.45;;;;;;;;;;4110994;34;20124;-63
2022/03/24 11:07:54;;;;;;;1.37;1.20;;;;;;;;;;4123664;34;20103;-63
2022/03/24 11:10:21;;;;;;;2.95;1.20;;;;;;;;;;4113729;34;20503;-63
2022/03/24 11:12:49;;;;;;;5.70;3.60;;;;;;;;;;4137321;34;20210;-65
2022/03/24 11:15:16;;;;;;;4.25;2.97;;;;;;;;;;4137206;34;20106;-65
2022/03/24 11:17:43;;;;;;;3.97;2.65;;;;;;;;;;4136692;34;20123;-64
2022/03/24 11:20:15;;;;;;;3.33;2.92;;;;;;;;;;4119398;34;20520;-66
2022/03/24 11:22:48;;;;;;;1.33;1.23;;;;;;;;;;4137267;34;20150;-65
2022/03/24 11:25:15;;;;;;;5.97;3.70;;;;;;;;;;4136848;34;20106;-64
2022/03/24 11:27:41;;;;;;;4.18;2.47;;;;;;;;;;4136971;34;20103;-65
2022/03/24 11:30:09;;;;;;;7.28;3.12;;;;;;;;;;4137042;34;20139;-65
2022/03/24 11:32:37;;;;;;;4.35;2.80;;;;;;;;;;4137392;34;20110;-64
2022/03/24 11:35:04;;;;;;;6.30;3.53;;;;;;;;;;4137214;34;20456;-65
2022/03/24 11:37:30;;;;;;;4.65;3.33;;;;;;;;;;4137285;34;20118;-64
2022/03/24 11:40:09;;;;;;;6.03;3.42;;;;;;;;;;4137199;34;20131;-65
2022/03/24 11:42:43;;;;;;;6.18;3.75;;;;;;;;;;4124242;34;20548;-64
2022/03/24 11:45:17;;;;;;;6.50;3.40;;;;;;;;;;4124612;34;20111;-65
2022/03/24 11:48:05;;;;;;;6.65;3.42;;;;;;;;;;4124689;34;20689;-64
2022/03/24 11:50:35;;;;;;;7.40;3.65;;;;;;;;;;4137042;34;20528;-64
2022/03/24 11:53:27;;;;;;;7.53;3.80;;;;;;;;;;4137075;34;20472;-63
2022/03/24 11:55:59;;;;;;;7.15;3.90;;;;;;;;;;4132706;34;20138;-64
2022/03/24 11:58:26;;;;;;;4.93;3.60;;;;;;;;;;4136545;34;20147;-64
2022/03/24 12:00:52;;;;;;;6.70;3.92;;;;;;;;;;4136951;34;20146;-64
2022/03/24 12:03:42;;;;;;;6.53;4.28;;;;;;;;;;4124606;34;20156;-63
2022/03/24 12:06:09;;;;;;;5.87;3.97;;;;;;;;;;4136890;34;20123;-64
2022/03/24 12:09:03;;;;;;;8.73;3.92;;;;;;;;;;4136861;34;20115;-62
2022/03/24 12:11:32;;;;;;;7.68;4.55;;;;;;;;;;4134852;34;20103;-63
2022/03/24 12:14:03;;;;;;;7.40;4.20;;;;;;;;;;4137124;34;20111;-62
2022/03/24 12:16:29;;;;;;;8.32;4.12;;;;;;;;;;4136873;34;20525;-62
2022/03/24 12:18:56;;;;;;;6.55;3.50;;;;;;;;;;4137158;34;20088;-62
2022/03/24 12:21:27;;;;;;;8.45;4.68;;;;;;;;;;4136676;34;20102;-62
2022/03/24 12:24:06;;;;;;;6.12;4.00;;;;;;;;;;4133392;34;20631;-62
2022/03/24 12:26:37;;;;;;;7.28;3.80;;;;;;;;;;4123343;34;20099;-63
2022/03/24 12:29:12;;;;;;;6.18;3.53;;;;;;;;;;4089456;34;20127;-64
2022/03/24 12:31:58;;;;;;;9.13;4.72;;;;;;;;;;4123297;34;20197;-64
2022/03/24 12:34:31;;;;;;;3.67;3.12;;;;;;;;;;4123319;34;20194;-63
2022/03/24 12:36:57;;;;;;;7.15;3.92;;;;;;;;;;4123253;34;20441;-63
2022/03/24 12:39:37;;;;;;;7.37;5.12;;;;;;;;;;4123250;34;20123;-63
2022/03/24 12:42:15;;;;;;;5.78;4.03;;;;;;;;;;4110949;34;20104;-64
2022/03/24 12:44:56;;;;;;;6.37;3.85;;;;;;;;;;4111020;34;20167;-63
2022/03/24 12:47:39;;;;;;;5.20;3.53;;;;;;;;;;4123302;34;20126;-62
2022/03/24 12:50:17;;;;;;;7.65;4.20;;;;;;;;;;4100786;34;20225;-63
2022/03/24 12:52:54;;;;;;;6.35;4.78;;;;;;;;;;4136399;34;20540;-62
2022/03/24 12:55:32;;;;;;;5.35;4.07;;;;;;;;;;4136249;34;20115;-62
2022/03/24 12:58:00;;;;;;;6.93;3.97;;;;;;;;;;4136477;34;20097;-62
2022/03/24 13:00:30;;;;;;;8.68;5.03;;;;;;;;;;4123865;34;20099;-62
2022/03/24 13:02:57;;;;;;;6.20;3.70;;;;;;;;;;4136593;34;20138;-63
2022/03/24 13:05:25;;;;;;;5.70;4.32;;;;;;;;;;4136189;34;20147;-63
2022/03/24 13:07:53;;;;;;;8.25;4.93;;;;;;;;;;4136521;34;20184;-62
2022/03/24 13:10:20;;;;;;;6.22;4.50;;;;;;;;;;4136196;34;20130;-63
2022/03/24 13:12:48;;;;;;;5.75;4.35;;;;;;;;;;4123902;34;20122;-62
2022/03/24 13:15:24;;;;;;;6.80;4.03;;;;;;;;;;4123630;34;20147;-62
2022/03/24 13:17:53;;;;;;;6.93;4.20;;;;;;;;;;4136439;34;20138;-62
2022/03/24 13:20:20;;;;;;;7.20;3.87;;;;;;;;;;4136203;34;20111;-62
2022/03/24 13:22:49;;;;;;;6.43;3.95;;;;;;;;;;4123959;34;20122;-63
2022/03/24 13:25:26;;;;;;;8.13;4.37;;;;;;;;;;4123976;34;20122;-61
2022/03/24 13:27:54;;;;;;;6.30;4.32;;;;;;;;;;4136270;34;20123;-62
2022/03/24 13:30:26;;;;;;;7.15;4.28;;;;;;;;;;4134868;34;20195;-62
2022/03/24 13:32:56;;;;;;;7.25;4.62;;;;;;;;;;4136033;34;20130;-62
2022/03/24 13:35:25;;;;;;;9.27;5.00;;;;;;;;;;4123902;34;20590;-66
2022/03/24 13:37:57;;;;;;;6.18;4.57;;;;;;;;;;4136189;34;20104;-64
2022/03/24 13:40:25;;;;;;;5.95;4.60;;;;;;;;;;4136317;34;20103;-62
2022/03/24 13:42:51;;;;;;;6.82;4.35;;;;;;;;;;4136042;34;20146;-60
2022/03/24 13:45:18;;;;;;;6.43;4.70;;;;;;;;;;4135852;34;20110;-61
2022/03/24 13:47:51;;;;;;;8.65;5.03;;;;;;;;;;4136025;34;20572;-61
2022/03/24 13:50:26;;;;;;;6.22;4.47;;;;;;;;;;4135936;34;20111;-63
2022/03/24 13:52:53;;;;;;;6.80;4.87;;;;;;;;;;4136024;34;20088;-63
2022/03/24 13:55:20;;;;;;;7.05;4.90;;;;;;;;;;4136194;34;20131;-63
2022/03/24 13:57:58;;;;;;;9.90;4.85;;;;;;;;;;4136020;34;20099;-68
2022/03/24 14:00:35;;;;;;;8.48;5.10;;;;;;;;;;4136039;34;20249;-66
2022/03/24 14:03:05;;;;;;;7.03;4.87;;;;;;;;;;4136003;34;20189;-65
2022/03/24 14:06:00;;;;;;;8.10;4.72;;;;;;;;;;4124295;34;20207;-65
2022/03/24 14:08:37;;;;;;;6.85;4.75;;;;;;;;;;4125492;34;20126;-65
2022/03/24 14:11:15;;;;;;;7.60;5.03;;;;;;;;;;4125258;34;20134;-65
2022/03/24 14:13:45;;;;;;;8.80;4.53;;;;;;;;;;4137985;34;20134;-65
2022/03/24 14:16:22;;;;;;;7.18;5.22;;;;;;;;;;4114332;34;20200;-60
2022/03/24 14:19:18;;;;;;;9.57;5.40;;;;;;;;;;4137952;34;20604;-59
2022/03/24 14:21:55;;;;;;;;;;;;;;;;;;4114347;34;20130;-61
2022/03/24 14:24:39;;;;;;;8.05;5.90;;;;;;;;;;4137767;34;20083;-60
2022/03/24 14:27:11;;;;;;;9.73;5.78;;;;;;;;;;4129264;34;20547;-61
2022/03/24 14:29:40;;;;;;;9.30;4.68;;;;;;;;;;4124012;34;20198;-61
2022/03/24 14:32:09;;;;;;;9.57;5.45;;;;;;;;;;4124344;34;20210;-60
2022/03/24 14:34:37;;;;;;;10.05;5.40;;;;;;;;;;4124269;34;20091;-61
2022/03/24 14:37:21;;;;;;;7.75;5.60;;;;;;;;;;4123983;34;20110;-60
2022/03/24 14:39:49;;;;;;;9.77;5.60;;;;;;;;;;4124236;34;20104;-59
2022/03/24 14:42:16;;;;;;;10.30;5.05;;;;;;;;;;4124385;34;20472;-58
2022/03/24 14:44:42;;;;;;;8.30;5.57;;;;;;;;;;4124105;34;20127;-59
2022/03/24 14:47:08;;;;;;;8.77;5.90;;;;;;;;;;4124156;34;20122;-59
2022/03/24 14:49:34;;;;;;;8.55;5.62;;;;;;;;;;4123969;34;20104;-59
2022/03/24 14:52:00;;;;;;;10.32;6.00;;;;;;;;;;4136242;34;20116;-59
2022/03/24 14:54:27;;;;;;;8.50;5.50;;;;;;;;;;4137343;34;21048;-57
2022/03/24 14:56:53;;;;;;;11.43;5.68;;;;;;;;;;4103293;34;20119;-59
2022/03/24 14:59:19;;;;;;;7.60;5.35;;;;;;;;;;4113773;34;20552;-60
2022/03/24 15:01:46;;;;;;;10.35;6.05;;;;;;;;;;4137510;34;20211;-60
2022/03/24 15:04:12;;;;;;;8.32;4.97;;;;;;;;;;4137257;34;20117;-59
2022/03/24 15:06:38;;;;;;;8.90;5.35;;;;;;;;;;4137507;34;20131;-60
2022/03/24 15:09:04;;;;;;;7.15;5.78;;;;;;;;;;4137416;34;20130;-60